Time;durP1;ratioP1;P1;durP2;ratioP2;P2;SDS_P1;SDS_P2;PMS_P1;PMS_P2;Temp;Humidity;BMP_temperature;BMP_pressure;BME280_temperature;BME280_humidity;BME280_pressure;Samples;Min_cycle;Max_cycle;Signal;HPM_P1;HPM_P2
2022/03/27 00:02:18;;;;;;;14.93;11.93;;;;;;;20.75;33.21;102197.78;5013478;28;20050;-85
2022/03/27 00:04:46;;;;;;;14.50;11.95;;;;;;;20.76;33.25;102198.63;5013179;28;20076;-85
2022/03/27 00:07:14;;;;;;;14.25;12.75;;;;;;;20.74;33.15;102194.22;4996354;28;20058;-86
2022/03/27 00:09:41;;;;;;;13.98;12.48;;;;;;;20.74;33.13;102201.41;4995169;28;20528;-86
2022/03/27 00:12:09;;;;;;;15.30;13.20;;;;;;;20.73;33.21;102195.19;4995821;28;20053;-85
2022/03/27 00:14:36;;;;;;;15.98;12.25;;;;;;;20.72;33.12;102193.47;4995813;28;20050;-85
2022/03/27 00:17:04;;;;;;;16.67;12.23;;;;;;;20.72;33.15;102198.84;4996295;28;20045;-85
2022/03/27 00:19:31;;;;;;;13.18;11.45;;;;;;;20.72;33.09;102190.78;5012532;28;20401;-85
2022/03/27 00:21:59;;;;;;;15.48;11.93;;;;;;;20.71;33.21;102199.81;4994621;28;20058;-85
2022/03/27 00:24:27;;;;;;;14.80;12.95;;;;;;;20.70;33.18;102187.34;4995885;28;20050;-84
2022/03/27 00:26:55;;;;;;;13.52;11.48;;;;;;;20.71;33.14;102188.19;5012537;28;20053;-83
2022/03/27 00:29:22;;;;;;;13.30;11.40;;;;;;;20.71;33.17;102185.50;4995281;28;20057;-84
2022/03/27 00:31:49;;;;;;;13.32;11.43;;;;;;;20.70;33.12;102192.72;5012566;28;20073;-84
2022/03/27 00:34:19;;;;;;;14.98;12.13;;;;;;;20.69;33.07;102188.28;5013072;28;20504;-84
2022/03/27 00:36:46;;;;;;;13.70;11.70;;;;;;;20.69;32.98;102182.91;5013875;28;20046;-84
2022/03/27 00:39:13;;;;;;;12.98;11.65;;;;;;;20.69;33.09;102188.28;5026943;28;20054;-84
2022/03/27 00:41:43;;;;;;;13.13;11.13;;;;;;;20.68;32.78;102180.34;5028030;28;20053;-85
2022/03/27 00:44:10;;;;;;;11.93;10.73;;;;;;;20.69;32.87;102187.44;4995484;28;20050;-84
2022/03/27 00:46:38;;;;;;;12.80;11.38;;;;;;;20.69;32.94;102180.22;5029142;28;20053;-84
2022/03/27 00:49:06;;;;;;;12.82;11.35;;;;;;;20.67;32.88;102173.25;4995906;28;20038;-85
2022/03/27 00:51:33;;;;;;;12.52;11.15;;;;;;;20.67;33.02;102179.47;5012178;28;20057;-83
2022/03/27 00:54:01;;;;;;;12.65;11.32;;;;;;;20.67;32.84;102174.09;5026886;28;20049;-84
2022/03/27 00:56:28;;;;;;;12.25;11.05;;;;;;;20.67;32.81;102174.09;5010499;28;20042;-84
2022/03/27 00:58:56;;;;;;;12.93;10.93;;;;;;;20.67;33.08;102171.41;5026210;28;20060;-84
2022/03/27 01:01:33;;;;;;;12.20;10.32;;;;;;;20.67;32.84;102173.25;5011591;28;20065;-84
2022/03/27 01:04:02;;;;;;;12.05;10.52;;;;;;;20.65;32.75;102170.63;5012174;28;20057;-84
2022/03/27 01:06:41;;;;;;;12.23;10.93;;;;;;;20.65;32.83;102167.94;5012670;28;20042;-84
2022/03/27 01:12:26;;;;;;;12.25;10.77;;;;;;;20.66;32.79;102176.88;5032303;27;20050;-84
2022/03/27 01:14:54;;;;;;;13.25;11.85;;;;;;;20.65;32.70;102178.72;4998242;28;20046;-84
2022/03/27 01:17:26;;;;;;;12.13;10.93;;;;;;;20.65;32.81;102183.22;4997547;28;20493;-85
2022/03/27 01:19:55;;;;;;;12.48;11.18;;;;;;;20.65;32.81;102181.41;5017110;28;20060;-85
2022/03/27 01:22:23;;;;;;;13.18;10.80;;;;;;;20.63;32.79;102172.59;5014830;28;20053;-85
2022/03/27 01:24:52;;;;;;;13.18;10.63;;;;;;;20.63;32.73;102172.59;5030991;28;20458;-85
2022/03/27 01:27:20;;;;;;;12.98;11.68;;;;;;;20.64;32.75;102173.44;4996462;28;20054;-85
2022/03/27 01:29:48;;;;;;;14.30;10.35;;;;;;;20.62;32.60;102173.56;5012908;28;20489;-83
2022/03/27 01:32:16;;;;;;;12.57;11.00;;;;;;;20.62;32.71;102181.66;5014246;28;20048;-83
2022/03/27 01:34:44;;;;;;;12.15;10.45;;;;;;;20.62;32.68;102170.88;5013812;28;20057;-83
2022/03/27 01:37:14;;;;;;;11.50;10.30;;;;;;;20.63;32.53;102166.34;4997530;28;20050;-83
2022/03/27 01:39:42;;;;;;;12.63;10.90;;;;;;;20.60;32.72;102167.41;5014479;28;20046;-83
2022/03/27 01:42:10;;;;;;;14.85;11.52;;;;;;;20.61;32.49;102168.28;5014703;28;20053;-83
2022/03/27 01:44:37;;;;;;;11.88;10.68;;;;;;;20.61;32.56;102170.97;5014484;28;20046;-83
2022/03/27 01:47:05;;;;;;;11.73;10.38;;;;;;;20.60;32.49;102170.09;4996433;28;20421;-83
2022/03/27 01:49:33;;;;;;;12.27;11.00;;;;;;;20.60;32.47;102174.63;4996928;28;20481;-85
2022/03/27 01:52:00;;;;;;;12.45;10.65;;;;;;;20.59;32.53;102171.09;5028958;28;20524;-85
2022/03/27 01:54:28;;;;;;;13.73;11.32;;;;;;;20.59;32.55;102171.09;5012752;28;20054;-85
2022/03/27 01:56:55;;;;;;;12.45;10.85;;;;;;;20.59;32.43;102172.91;5029889;28;20038;-83
2022/03/27 01:59:22;;;;;;;12.75;10.52;;;;;;;20.59;32.46;102164.84;5014523;28;20050;-83
2022/03/27 02:01:50;;;;;;;12.60;10.52;;;;;;;20.58;32.45;102169.38;4996416;28;20058;-83
2022/03/27 02:04:18;;;;;;;11.80;10.55;;;;;;;20.59;32.43;102175.63;4997866;28;20054;-83
2022/03/27 02:06:46;;;;;;;12.32;10.75;;;;;;;20.58;32.72;102177.44;5014114;28;20046;-83
2022/03/27 02:09:13;;;;;;;14.02;10.98;;;;;;;20.59;32.38;102181.00;5014182;28;20407;-83
2022/03/27 02:11:42;;;;;;;13.93;10.68;;;;;;;20.57;32.44;102189.16;5029386;28;20049;-84
2022/03/27 02:14:10;;;;;;;11.77;10.48;;;;;;;20.58;32.50;102182.81;5014599;28;20042;-84
2022/03/27 02:16:38;;;;;;;11.95;10.52;;;;;;;20.57;32.48;102178.38;5014125;28;20042;-85
2022/03/27 02:19:10;;;;;;;12.32;10.93;;;;;;;20.56;32.35;102176.66;4996371;28;20365;-85
2022/03/27 02:21:39;;;;;;;11.90;10.60;;;;;;;20.56;32.29;102192.81;5014639;28;20046;-85
2022/03/27 02:24:08;;;;;;;11.43;10.07;;;;;;;20.56;32.33;102181.19;4998005;28;20061;-83
2022/03/27 02:26:41;;;;;;;11.98;10.65;;;;;;;20.56;32.52;102175.81;4997739;28;20050;-83
2022/03/27 02:29:16;;;;;;;11.43;10.18;;;;;;;20.56;32.34;102192.81;5014249;28;20052;-83
2022/03/27 02:31:45;;;;;;;11.00;9.90;;;;;;;20.56;32.28;102191.97;5013807;28;20076;-82
2022/03/27 02:34:14;;;;;;;12.63;10.90;;;;;;;20.55;32.36;102195.63;5014308;28;20046;-83
2022/03/27 02:36:42;;;;;;;11.43;10.23;;;;;;;20.53;32.44;102187.63;4994989;28;20053;-83
2022/03/27 02:39:09;;;;;;;13.32;10.80;;;;;;;20.54;32.57;102192.06;5013005;28;20057;-83
2022/03/27 02:41:42;;;;;;;10.70;9.50;;;;;;;20.53;32.59;102187.63;5029292;28;20492;-83
2022/03/27 02:44:12;;;;;;;11.95;10.73;;;;;;;20.53;32.35;102193.03;4997145;28;20045;-83
2022/03/27 02:46:40;;;;;;;13.18;10.93;;;;;;;20.52;32.46;102196.69;5014743;28;20385;-83
2022/03/27 02:49:09;;;;;;;12.07;10.10;;;;;;;20.54;32.42;102191.19;4997005;28;20045;-83
2022/03/27 02:51:36;;;;;;;10.35;9.30;;;;;;;20.52;32.54;102194.00;5013414;28;20046;-83
2022/03/27 02:54:04;;;;;;;12.55;10.48;;;;;;;20.52;32.62;102196.69;5012946;28;20479;-83
2022/03/27 02:56:32;;;;;;;11.30;10.07;;;;;;;20.52;32.55;102199.38;5013623;28;20073;-83
2022/03/27 02:58:59;;;;;;;10.50;9.43;;;;;;;20.53;32.58;102197.53;4996641;28;20049;-82
2022/03/27 03:01:27;;;;;;;12.05;10.40;;;;;;;20.51;32.50;102194.97;4996076;28;20065;-82
2022/03/27 03:03:55;;;;;;;11.02;9.93;;;;;;;20.52;32.49;102194.00;5012774;28;20123;-82
2022/03/27 03:06:26;;;;;;;11.18;10.05;;;;;;;20.49;32.59;102197.75;5012363;28;20050;-82
2022/03/27 03:08:54;;;;;;;9.93;8.90;;;;;;;20.51;32.61;102204.88;5012644;28;20053;-83
2022/03/27 03:11:21;;;;;;;10.40;9.38;;;;;;;20.50;32.52;102198.63;5013306;28;20056;-83
2022/03/27 03:13:50;;;;;;;9.52;8.63;;;;;;;20.50;32.48;102198.63;5014737;28;20430;-83
2022/03/27 03:16:38;;;;;;;10.80;9.60;;;;;;;20.49;32.73;102199.59;4995882;28;20062;-85
2022/03/27 03:19:06;;;;;;;10.57;9.48;;;;;;;20.49;32.55;102199.59;4996421;28;20061;-83
2022/03/27 03:21:34;;;;;;;10.48;9.38;;;;;;;20.48;32.69;102195.16;5013529;28;20486;-83
2022/03/27 03:24:01;;;;;;;10.48;9.25;;;;;;;20.48;32.50;102200.53;5013156;28;20054;-83
2022/03/27 03:26:28;;;;;;;11.57;9.88;;;;;;;20.47;32.79;102199.66;5013050;28;20056;-83
2022/03/27 03:28:56;;;;;;;10.95;9.75;;;;;;;20.48;32.65;102203.22;4995579;28;20050;-84
2022/03/27 03:31:24;;;;;;;11.75;9.35;;;;;;;20.47;32.73;102204.19;4995472;28;20046;-83
2022/03/27 03:33:52;;;;;;;10.85;9.27;;;;;;;20.46;32.69;102199.78;4995133;28;20135;-83
2022/03/27 03:36:19;;;;;;;9.63;8.52;;;;;;;20.47;32.41;102204.19;5011450;28;20049;-83
2022/03/27 03:38:46;;;;;;;10.35;9.27;;;;;;;20.46;32.78;102197.94;5028270;28;20045;-83
2022/03/27 03:41:14;;;;;;;10.18;9.18;;;;;;;20.45;32.70;102198.03;5013680;28;20049;-84
2022/03/27 03:43:41;;;;;;;9.80;8.80;;;;;;;20.46;32.60;102202.47;5012790;28;20515;-84
2022/03/27 03:46:08;;;;;;;9.98;8.98;;;;;;;20.45;32.62;102200.72;5011751;28;20053;-83
2022/03/27 03:48:36;;;;;;;9.75;8.75;;;;;;;20.44;32.69;102205.25;5011624;28;20054;-83
2022/03/27 03:51:03;;;;;;;10.00;8.63;;;;;;;20.45;32.59;102206.09;5012981;28;20038;-84
2022/03/27 03:53:30;;;;;;;9.05;8.13;;;;;;;20.44;32.51;102212.47;5013665;28;20038;-82
2022/03/27 03:55:58;;;;;;;10.30;9.13;;;;;;;20.43;32.68;102203.53;5015660;28;20522;-82
2022/03/27 03:58:25;;;;;;;10.10;8.93;;;;;;;20.43;32.70;102208.91;4995053;28;20057;-82
2022/03/27 04:00:52;;;;;;;10.57;9.48;;;;;;;20.42;32.63;102211.72;5014946;28;20065;-83
2022/03/27 04:03:20;;;;;;;9.23;8.25;;;;;;;20.42;32.65;102209.03;5012457;28;20050;-83
2022/03/27 04:05:47;;;;;;;8.45;7.57;;;;;;;20.41;32.67;102210.84;5011672;28;20054;-83
2022/03/27 04:08:15;;;;;;;10.45;8.35;;;;;;;20.42;32.48;102209.03;5012100;28;20406;-83
2022/03/27 04:10:42;;;;;;;9.75;8.35;;;;;;;20.42;32.55;102214.41;5012740;28;20046;-83
2022/03/27 04:13:10;;;;;;;9.80;8.90;;;;;;;20.41;32.56;102209.97;5012653;28;20041;-84
2022/03/27 04:15:40;;;;;;;9.82;8.80;;;;;;;20.41;32.82;102207.28;5027182;28;20046;-84
2022/03/27 04:18:22;;;;;;;10.38;8.48;;;;;;;20.40;32.45;102203.75;4997506;28;20045;-83
2022/03/27 04:20:51;;;;;;;9.18;8.27;;;;;;;20.40;32.82;102202.88;5012112;28;20053;-84
2022/03/27 04:23:20;;;;;;;8.75;7.90;;;;;;;20.39;32.65;102206.56;5012076;28;20393;-84
2022/03/27 04:25:47;;;;;;;9.00;8.10;;;;;;;20.39;32.54;102212.78;5010892;28;20477;-83
2022/03/27 04:28:14;;;;;;;9.20;8.02;;;;;;;20.38;32.77;102210.22;5011434;28;20049;-82
2022/03/27 04:30:42;;;;;;;9.88;7.90;;;;;;;20.38;32.77;102204.84;5012137;28;20061;-81
2022/03/27 04:33:10;;;;;;;9.07;8.18;;;;;;;20.39;32.68;102210.09;5011456;28;20401;-78
2022/03/27 04:35:38;;;;;;;8.80;7.80;;;;;;;20.39;32.77;102212.78;5011271;28;20049;-79
2022/03/27 04:38:05;;;;;;;9.32;8.00;;;;;;;20.38;32.70;102205.69;5011824;28;20129;-80
2022/03/27 04:40:33;;;;;;;8.70;7.43;;;;;;;20.39;32.78;102206.56;5011417;28;20050;-81
2022/03/27 04:43:01;;;;;;;10.25;7.95;;;;;;;20.39;32.71;102209.25;5014953;28;20076;-80
2022/03/27 04:45:28;;;;;;;11.02;8.32;;;;;;;20.37;32.85;102219.22;5015630;28;20046;-80
2022/03/27 04:47:55;;;;;;;8.30;7.38;;;;;;;20.38;32.72;102215.59;5014162;28;20054;-80
2022/03/27 04:50:23;;;;;;;8.65;7.80;;;;;;;20.37;32.68;102214.69;5029116;28;20054;-80
2022/03/27 04:52:50;;;;;;;8.60;7.55;;;;;;;20.36;32.77;102212.13;5030590;28;20076;-81
2022/03/27 04:55:17;;;;;;;9.43;8.02;;;;;;;20.37;32.85;102219.22;4996850;28;20053;-80
2022/03/27 04:57:45;;;;;;;10.60;8.20;;;;;;;20.35;32.86;102216.66;5014842;28;20045;-79
2022/03/27 05:00:17;;;;;;;7.97;7.22;;;;;;;20.36;32.78;102220.19;5014746;28;20489;-79
2022/03/27 05:02:45;;;;;;;8.93;7.80;;;;;;;20.35;32.84;102219.34;5014963;28;20497;-79
2022/03/27 05:05:13;;;;;;;7.97;7.15;;;;;;;20.34;32.78;102217.63;5014482;28;20046;-80
2022/03/27 05:07:41;;;;;;;8.90;7.70;;;;;;;20.34;32.64;102223.00;5014263;28;20045;-80
2022/03/27 05:10:11;;;;;;;8.45;7.55;;;;;;;20.34;32.61;102222.16;5014290;28;20045;-80
2022/03/27 05:12:40;;;;;;;8.07;7.25;;;;;;;20.34;32.78;102220.31;5014317;28;20045;-80
2022/03/27 05:15:09;;;;;;;8.20;7.25;;;;;;;20.33;32.61;102223.94;5014484;28;20061;-80
2022/03/27 05:17:48;;;;;;;9.07;8.07;;;;;;;20.33;32.89;102221.25;5014314;28;20064;-80
2022/03/27 05:20:16;;;;;;;8.60;7.70;;;;;;;20.32;32.79;102224.91;5015667;28;20052;-80
2022/03/27 05:22:43;;;;;;;8.57;7.68;;;;;;;20.33;32.77;102228.47;4996388;28;20050;-80
2022/03/27 05:25:12;;;;;;;9.00;7.65;;;;;;;20.32;32.94;102232.13;5013700;28;20046;-80
2022/03/27 05:27:53;;;;;;;8.27;7.47;;;;;;;20.32;32.83;102234.81;5013751;28;20046;-80
2022/03/27 05:30:22;;;;;;;8.90;8.00;;;;;;;20.32;32.52;102237.50;5014934;28;20046;-80
2022/03/27 05:32:51;;;;;;;9.70;6.63;;;;;;;20.32;32.65;102232.13;4997847;28;20061;-79
2022/03/27 05:35:20;;;;;;;9.15;6.97;;;;;;;20.31;32.75;102233.97;4996688;28;20050;-79
2022/03/27 05:37:48;;;;;;;7.80;6.85;;;;;;;20.31;32.72;102246.56;5014589;28;20072;-79
2022/03/27 05:40:18;;;;;;;8.07;7.28;;;;;;;20.31;32.76;102249.25;5028809;28;20058;-80
2022/03/27 05:42:47;;;;;;;8.05;7.28;;;;;;;20.30;32.65;102245.69;5014403;28;20489;-81
2022/03/27 05:45:15;;;;;;;7.65;6.88;;;;;;;20.29;32.87;102246.63;4997306;28;20049;-80
2022/03/27 05:47:43;;;;;;;8.57;7.55;;;;;;;20.30;32.83;102244.84;5014122;28;20429;-80
2022/03/27 05:50:13;;;;;;;7.57;6.65;;;;;;;20.30;32.91;102247.53;5013079;28;20454;-80
2022/03/27 05:52:42;;;;;;;8.45;7.45;;;;;;;20.29;32.98;102256.53;5030677;28;20050;-80
2022/03/27 05:55:12;;;;;;;7.63;6.57;;;;;;;20.29;32.73;102256.53;5014336;28;20363;-81
2022/03/27 05:57:40;;;;;;;8.52;6.65;;;;;;;20.27;32.83;102258.50;5013733;28;20042;-80
2022/03/27 06:00:09;;;;;;;7.30;6.38;;;;;;;20.28;32.78;102260.19;5013860;28;20493;-80
2022/03/27 06:02:36;;;;;;;8.27;6.78;;;;;;;20.27;32.83;102262.03;5020552;28;20069;-79
2022/03/27 06:05:04;;;;;;;6.93;6.15;;;;;;;20.28;32.66;102270.97;5013363;28;20042;-79
2022/03/27 06:07:32;;;;;;;8.00;7.05;;;;;;;20.27;32.74;102266.56;5013676;28;20046;-79
2022/03/27 06:09:59;;;;;;;8.90;6.82;;;;;;;20.27;32.62;102267.41;4995443;28;20058;-80
2022/03/27 06:12:26;;;;;;;7.82;6.70;;;;;;;20.27;32.74;102271.94;5014347;28;20053;-80
2022/03/27 06:14:54;;;;;;;7.47;6.53;;;;;;;20.27;32.79;102271.94;5013666;28;20052;-80
2022/03/27 06:17:21;;;;;;;7.63;6.57;;;;;;;20.25;32.76;102272.91;4996081;28;20076;-80
2022/03/27 06:19:48;;;;;;;8.07;7.03;;;;;;;20.26;32.67;102276.44;5013411;28;20050;-80
2022/03/27 06:22:16;;;;;;;7.60;6.65;;;;;;;20.25;32.65;102283.66;5013213;28;20045;-80
2022/03/27 06:24:44;;;;;;;6.95;6.25;;;;;;;20.25;32.62;102283.66;4996420;28;20050;-80
2022/03/27 06:27:11;;;;;;;7.43;6.35;;;;;;;20.25;32.67;102289.03;5030584;28;20081;-80
2022/03/27 06:29:38;;;;;;;7.93;6.97;;;;;;;20.25;32.72;102291.72;5013351;28;20049;-80
2022/03/27 06:32:06;;;;;;;6.90;6.18;;;;;;;20.25;32.84;102291.72;5012954;28;20069;-80
2022/03/27 06:34:33;;;;;;;7.38;6.60;;;;;;;20.26;32.85;102292.59;5027760;28;20041;-80
2022/03/27 06:37:01;;;;;;;7.20;6.38;;;;;;;20.25;32.76;102296.22;4997061;28;20050;-79
2022/03/27 06:39:28;;;;;;;7.78;6.70;;;;;;;20.26;32.67;102292.59;5012121;28;20405;-80
2022/03/27 06:41:55;;;;;;;7.35;6.32;;;;;;;20.25;32.83;102289.03;5027832;28;20054;-80
2022/03/27 06:44:23;;;;;;;7.88;6.57;;;;;;;20.25;32.79;102285.47;4996127;28;20054;-80
2022/03/27 06:46:50;;;;;;;7.55;6.63;;;;;;;20.25;32.79;102290.84;4995614;28;20377;-80
2022/03/27 06:49:18;;;;;;;7.10;6.32;;;;;;;20.25;32.70;102288.16;5011779;28;20046;-79
2022/03/27 06:51:45;;;;;;;6.72;6.03;;;;;;;20.25;33.00;102286.34;5012339;28;20038;-80
2022/03/27 06:54:12;;;;;;;6.93;6.22;;;;;;;20.24;32.96;102284.59;5013122;28;20054;-80
2022/03/27 06:56:41;;;;;;;8.48;6.60;;;;;;;20.24;32.90;102284.59;5013363;28;20504;-80
2022/03/27 06:59:09;;;;;;;7.50;6.32;;;;;;;20.23;33.06;102288.25;5012713;28;20042;-80
2022/03/27 07:04:22;;;;;;;7.80;6.57;;;;;;;20.24;32.93;102300.75;4994586;28;20053;-80
2022/03/27 07:06:50;;;;;;;7.93;6.45;;;;;;;20.24;33.00;102299.88;5012238;28;20046;-80
2022/03/27 07:09:18;;;;;;;7.50;6.75;;;;;;;20.23;33.10;102304.41;5012311;28;20045;-80
2022/03/27 07:11:47;;;;;;;7.15;6.30;;;;;;;20.24;33.05;102314.19;4995379;28;20061;-79
2022/03/27 07:14:16;;;;;;;8.15;6.82;;;;;;;20.23;33.00;102323.22;4995179;28;20054;-80
2022/03/27 07:16:43;;;;;;;6.80;6.13;;;;;;;20.24;33.03;102316.00;5011930;28;20060;-81
2022/03/27 07:19:11;;;;;;;7.80;6.60;;;;;;;20.25;32.86;102320.41;5014031;28;20034;-81
2022/03/27 07:21:38;;;;;;;7.70;6.55;;;;;;;20.25;33.02;102317.72;4995134;28;20058;-81
2022/03/27 07:24:06;;;;;;;8.60;7.47;;;;;;;20.25;33.24;102323.09;5012418;28;20041;-79
2022/03/27 07:26:34;;;;;;;8.00;6.47;;;;;;;20.25;32.83;102326.69;5012272;28;20046;-79
2022/03/27 07:29:04;;;;;;;9.13;7.40;;;;;;;20.26;32.92;102324.84;5028696;28;20053;-80
2022/03/27 07:31:32;;;;;;;8.20;6.88;;;;;;;20.25;33.02;102334.75;5012970;28;20061;-81
2022/03/27 07:33:59;;;;;;;8.88;6.65;;;;;;;20.25;33.00;102326.69;5012263;28;20050;-79
2022/03/27 07:36:26;;;;;;;7.70;6.57;;;;;;;20.25;33.06;102324.00;4995047;28;20476;-79
2022/03/27 07:38:54;;;;;;;9.57;8.25;;;;;;;20.26;33.02;102324.84;4994148;28;20050;-79
2022/03/27 07:41:21;;;;;;;8.82;7.35;;;;;;;20.25;32.88;102329.38;4994457;28;20046;-80
2022/03/27 07:43:48;;;;;;;8.65;7.72;;;;;;;20.27;32.93;102325.72;5010796;28;20046;-80
2022/03/27 07:46:16;;;;;;;8.18;7.28;;;;;;;20.25;32.80;102329.38;4995063;28;20046;-80
2022/03/27 07:48:43;;;;;;;8.52;7.63;;;;;;;20.25;32.88;102329.38;4994252;28;20050;-82
2022/03/27 07:51:10;;;;;;;8.13;7.25;;;;;;;20.27;33.03;102329.25;5011753;28;20120;-80
2022/03/27 07:53:38;;;;;;;9.68;7.55;;;;;;;20.27;33.17;102331.09;5012286;28;20508;-80
2022/03/27 07:56:05;;;;;;;8.70;7.65;;;;;;;20.27;33.23;102337.34;5012727;28;20489;-80
2022/03/27 07:58:32;;;;;;;8.35;7.07;;;;;;;20.28;33.50;102333.66;5012220;28;20046;-80
2022/03/27 08:01:00;;;;;;;8.30;6.93;;;;;;;20.30;33.46;102337.13;5012903;28;20046;-80
2022/03/27 08:03:30;;;;;;;8.85;7.47;;;;;;;20.31;33.72;102340.69;5012507;28;20409;-81
2022/03/27 08:05:58;;;;;;;13.63;9.50;;;;;;;20.31;33.20;102335.31;5014283;28;20472;-83
2022/03/27 08:08:25;;;;;;;13.57;8.93;;;;;;;20.31;33.51;102330.78;5013501;28;20053;-82
2022/03/27 08:10:53;;;;;;;13.93;9.52;;;;;;;20.32;33.62;102328.94;5013198;28;20038;-83
2022/03/27 08:13:20;;;;;;;13.20;10.43;;;;;;;20.33;33.53;102330.66;5014822;28;20496;-78
2022/03/27 08:15:48;;;;;;;13.68;10.27;;;;;;;20.33;33.49;102330.66;5014985;28;20053;-88
2022/03/27 08:18:15;;;;;;;12.80;10.40;;;;;;;20.33;33.41;102341.44;5013628;28;20050;-88
2022/03/27 08:20:43;;;;;;;13.60;8.45;;;;;;;20.34;33.50;102337.81;5013417;28;20381;-89
2022/03/27 08:23:11;;;;;;;11.55;10.27;;;;;;;20.34;33.44;102343.19;4996061;28;20046;-86
2022/03/27 08:28:25;;;;;;;19.08;15.98;;;;;;;20.30;32.14;102347.91;4996658;28;20062;-81
2022/03/27 08:30:52;;;;;;;20.23;16.15;;;;;;;20.25;31.66;102337.44;5015299;28;20049;-95
2022/03/27 08:33:20;;;;;;;22.90;18.40;;;;;;;20.19;31.29;102337.84;4979608;28;20394;-94
2022/03/27 08:35:48;;;;;;;24.70;19.52;;;;;;;20.12;31.27;102341.88;4996464;28;20054;-80
2022/03/27 08:38:17;;;;;;;21.40;18.48;;;;;;;20.10;31.58;102335.75;4995503;28;20046;-83
2022/03/27 08:40:53;;;;;;;20.42;16.67;;;;;;;20.10;31.67;102343.81;5013086;28;20056;-92
2022/03/27 08:43:20;;;;;;;24.88;18.33;;;;;;;20.09;31.78;102350.13;4996406;28;20121;-89
2022/03/27 08:45:47;;;;;;;20.13;17.63;;;;;;;20.08;31.98;102348.41;4995214;28;20413;-86
2022/03/27 08:48:16;;;;;;;23.05;19.13;;;;;;;20.09;31.58;102357.34;5013592;28;20382;-82
2022/03/27 08:50:58;;;;;;;21.33;18.00;;;;;;;20.08;31.60;102352.94;5012012;28;20042;-84
2022/03/27 08:53:30;;;;;;;21.38;17.98;;;;;;;20.11;32.09;102353.59;5026684;28;20045;-87
2022/03/27 08:56:01;;;;;;;22.88;16.35;;;;;;;20.14;32.60;102353.41;4994234;28;20433;-87
2022/03/27 08:58:35;;;;;;;21.83;17.73;;;;;;;20.18;32.71;102354.94;4994080;28;20094;-85
2022/03/27 09:01:04;;;;;;;21.15;17.33;;;;;;;20.21;32.17;102354.72;5009981;28;20050;-83
2022/03/27 09:03:32;;;;;;;24.52;17.90;;;;;;;20.23;32.13;102360.00;5011704;28;20054;-89
2022/03/27 09:06:01;;;;;;;23.23;18.55;;;;;;;20.23;31.45;102352.81;4995466;28;20042;-82
2022/03/27 09:08:36;;;;;;;24.10;19.40;;;;;;;20.24;31.48;102351.84;4995147;28;20110;-84
2022/03/27 09:11:04;;;;;;;22.77;18.42;;;;;;;20.25;31.44;102353.59;5012401;28;20050;-85
2022/03/27 09:13:32;;;;;;;27.85;18.48;;;;;;;20.27;31.97;102350.78;4993870;28;20049;-79
2022/03/27 09:16:05;;;;;;;21.45;17.52;;;;;;;20.28;32.14;102359.72;5010729;28;20046;-83
2022/03/27 09:18:44;;;;;;;19.30;17.00;;;;;;;20.29;31.46;102353.34;5000251;28;20464;-78
2022/03/27 09:21:21;;;;;;;24.85;19.73;;;;;;;20.28;31.27;102349.81;5099371;28;20047;-79
2022/03/27 09:23:56;;;;;;;26.38;20.58;;;;;;;20.27;30.98;102347.22;5130826;28;20050;-81
2022/03/27 09:26:23;;;;;;;23.15;17.90;;;;;;;20.30;31.66;102358.66;5030404;28;20050;-79
2022/03/27 09:28:53;;;;;;;24.38;18.77;;;;;;;20.34;31.36;102348.56;5040714;27;20046;-80
2022/03/27 09:31:25;;;;;;;23.52;20.88;;;;;;;20.31;31.20;102348.75;5031431;28;20490;-80
2022/03/27 09:33:59;;;;;;;24.25;18.27;;;;;;;20.30;31.63;102347.91;5119389;27;20054;-78
2022/03/27 09:36:34;;;;;;;26.20;20.45;;;;;;;20.29;31.11;102345.28;5119112;27;20046;-80
2022/03/27 09:39:06;;;;;;;29.83;22.48;;;;;;;20.25;30.98;102345.50;5138503;27;20395;-80
2022/03/27 09:41:36;;;;;;;27.15;20.35;;;;;;;20.23;30.73;102339.34;5045560;28;20050;-83
2022/03/27 09:44:07;;;;;;;27.13;22.02;;;;;;;20.22;30.66;102348.41;5035178;28;20503;-81
2022/03/27 09:46:57;;;;;;;26.77;21.85;;;;;;;20.19;30.90;102340.53;5017275;28;20050;-83
2022/03/27 09:49:41;;;;;;;26.20;20.00;;;;;;;20.21;31.22;102343.09;5034071;28;20052;-86
2022/03/27 09:52:09;;;;;;;25.40;20.58;;;;;;;20.21;30.84;102338.59;5034542;28;20129;-84
2022/03/27 09:54:55;;;;;;;27.42;22.30;;;;;;;20.21;30.72;102340.41;5034323;28;20046;-83
2022/03/27 09:57:33;;;;;;;29.85;23.17;;;;;;;20.21;30.85;102338.59;5034819;28;20061;-84
2022/03/27 10:00:15;;;;;;;27.92;22.70;;;;;;;20.18;30.77;102332.56;5034107;28;20045;-89
2022/03/27 10:02:48;;;;;;;29.80;22.23;;;;;;;20.18;30.79;102332.56;5000937;28;20508;-87
2022/03/27 10:05:17;;;;;;;25.05;21.15;;;;;;;20.20;30.98;102333.31;4998768;28;20054;-90
2022/03/27 10:07:47;;;;;;;29.27;23.58;;;;;;;20.19;30.96;102324.38;5015565;28;20050;-89
2022/03/27 10:10:17;;;;;;;30.30;23.85;;;;;;;20.19;30.90;102328.91;5013225;28;20512;-89
2022/03/27 10:12:50;;;;;;;31.52;23.00;;;;;;;20.19;31.34;102328.91;5015263;28;20046;-83
2022/03/27 10:15:20;;;;;;;33.72;23.33;;;;;;;20.15;31.28;102328.25;5015165;28;20060;-89
2022/03/27 10:17:58;;;;;;;;;;;;;;;20.17;31.61;102322.75;5035196;28;20400;-91
2022/03/27 10:20:34;;;;;;;37.45;25.33;;;;;;;20.19;31.52;102319.00;5035350;28;20375;-85
2022/03/27 10:23:16;;;;;;;32.70;24.73;;;;;;;20.16;31.21;102319.22;4999968;28;20385;-85
2022/03/27 10:25:50;;;;;;;33.33;24.17;;;;;;;20.18;31.21;102319.97;5017626;28;20053;-84
2022/03/27 10:28:19;;;;;;;25.80;22.15;;;;;;;20.20;30.80;102318.03;5015154;28;20105;-84
2022/03/27 10:30:51;;;;;;;29.88;22.27;;;;;;;20.23;31.23;102314.28;5006255;27;20054;-85
2022/03/27 10:33:23;;;;;;;30.73;23.17;;;;;;;20.24;31.60;102311.50;5139750;27;20121;-81
2022/03/27 10:35:55;;;;;;;28.90;21.92;;;;;;;20.27;31.55;102320.34;5138868;27;20280;-80
2022/03/27 10:38:38;;;;;;;27.08;23.15;;;;;;;20.27;31.42;102320.34;5023735;28;20497;-82
2022/03/27 10:41:29;;;;;;;27.48;23.65;;;;;;;20.23;31.10;102304.41;5032137;28;20072;-82
2022/03/27 10:44:19;;;;;;;34.92;26.63;;;;;;;20.22;30.69;102312.59;5033005;28;20060;-83
2022/03/27 10:47:15;;;;;;;33.58;26.83;;;;;;;20.20;32.08;102304.59;5032194;28;20060;-82
2022/03/27 10:50:08;;;;;;;35.33;26.40;;;;;;;20.19;33.81;102308.25;5030700;28;20050;-77
2022/03/27 10:52:43;;;;;;;34.83;27.58;;;;;;;19.87;33.95;102298.75;4971722;28;20102;-77
2022/03/27 10:55:15;;;;;;;42.22;31.33;;;;;;;19.73;32.63;102302.34;4956369;28;20073;-75
2022/03/27 10:57:51;;;;;;;36.13;26.60;;;;;;;19.84;33.33;102290.88;4971672;28;20423;-74
2022/03/27 11:00:39;;;;;;;32.90;25.15;;;;;;;19.90;33.16;102290.50;4970272;28;20557;-77
2022/03/27 11:03:07;;;;;;;37.17;26.23;;;;;;;19.94;33.91;102287.50;4971503;28;20063;-78
2022/03/27 11:05:37;;;;;;;35.50;27.25;;;;;;;19.95;33.14;102280.31;4971792;28;20121;-79
2022/03/27 11:08:14;;;;;;;35.53;26.38;;;;;;;20.00;33.50;102280.84;4971840;28;20090;-78
2022/03/27 11:10:49;;;;;;;35.92;26.30;;;;;;;20.03;32.84;102283.34;4955253;28;20530;-79
2022/03/27 11:13:26;;;;;;;33.78;26.13;;;;;;;20.08;32.97;102275.84;4939890;28;20054;-78
2022/03/27 11:16:11;;;;;;;35.90;25.85;;;;;;;20.10;33.26;102273.91;4972340;28;20062;-79
2022/03/27 11:18:43;;;;;;;35.95;26.02;;;;;;;20.13;33.49;102276.38;4940473;28;20057;-78
2022/03/27 11:21:34;;;;;;;33.88;27.05;;;;;;;20.09;32.64;102274.00;4972203;28;20055;-79
2022/03/27 11:24:01;;;;;;;33.45;25.88;;;;;;;20.12;32.62;102271.13;4970419;28;20398;-79
2022/03/27 11:26:31;;;;;;;33.28;27.02;;;;;;;20.13;32.30;102271.00;4970176;28;20414;-79
2022/03/27 11:29:18;;;;;;;31.95;24.73;;;;;;;20.17;32.28;102272.53;4978057;28;20413;-79
2022/03/27 11:32:07;;;;;;;28.30;23.95;;;;;;;20.18;31.85;102268.03;5055284;28;20508;-89
2022/03/27 11:34:36;;;;;;;35.17;25.00;;;;;;;20.20;31.90;102266.09;5013106;28;20409;-78
2022/03/27 11:37:25;;;;;;;31.33;24.08;;;;;;;20.22;32.21;102262.34;5012442;28;20409;-77
2022/03/27 11:39:54;;;;;;;30.75;24.15;;;;;;;20.24;32.09;102268.47;5012960;28;20053;-77